Belleview, FL (34421)

1:07 AM EST on February 14, 2016 (GMT -0500)
Golden Pond Mobile Home Village | | Change Station
CLOSE
Current Station
Personal Weather Station
Location: Ocala, FL
Elevation: 82 ft
Nearby Weather Stations

Elev 82 ft 29.07 °N, 82.10 °W | Updated 2 minutes ago

Clear
Clear
37.6 °F
Feels Like 38 °F
N
0.0
Wind Variable Wind from NW

Today
High -- | Low -- °F
--% Chance of Precip.
Yesterday
High -- | Low -- °F
Precip. -- in
Pressure 30.31 in
Visibility 10.0 miles
Clouds Clear
Windchill 38 °F
Dew Point 34 °F
Humidity 87%
Rainfall 0.00 in
Snow Depth Not available.
7:08 AM 6:16 PM
Waxing Crescent, 38% visible
METAR KOCF 140555Z AUTO 00000KT 10SM CLR 05/M01 A3031 RMK AO1 10130 20050 57003
Pressure 30.31 in
Visibility 10.0 miles
Clouds Clear
Windchill 38 °F
Dew Point 34 °F
Humidity 87%
Rainfall 0.00 in
Snow Depth Not available.
7:08 AM 6:16 PM
Waxing Crescent, 38% visible
METAR KOCF 140555Z AUTO 00000KT 10SM CLR 05/M01 A3031 RMK AO1 10130 20050 57003

10-Day Weather Forecast

Almanac

Astronomy

Feb. 14, 2016 Rise Set
Actual Time
Civil Twilight
Nautical Twilight
Astronomical Twilight
Moon
Length of Visible Light
Length of Day
Tomorrow will be .
, % of the Moon is Illuminated

Today's Extremes

State Highs State Lows

Community

WunderPhotos

Upload Photos

1,892,752 photos uploaded!

WunderBlog® & News

Nearby

Air Quality

  Air Quality AQ Index Pollutant
Not available.

Snow Depth

Station Depth Elevation

Earthquake Activity

City Distance Mag. Time & Date
Minimum magnitude displayed is 2.5.

Coastal Water Temperatures

Place Temperature

Stations

Nearby Weather Stations

Station Location Temp. Windchill Dew Point Humidity Wind Precip. Elev Updated Type
                   

Watches & Warnings

There are currently no watches in effect.